createdAt,value
2017-12-16T00:02:21.957Z,9.52
2017-12-16T00:04:49.947Z,9.65
2017-12-16T00:07:17.969Z,10.30
2017-12-16T00:09:46.763Z,12.00
2017-12-16T00:12:15.582Z,11.85
2017-12-16T00:14:43.592Z,11.85
2017-12-16T00:17:11.689Z,13.48
2017-12-16T00:19:40.451Z,13.05
2017-12-16T00:22:08.477Z,12.75
2017-12-16T00:24:36.505Z,13.27
2017-12-16T00:27:04.570Z,12.45
2017-12-16T00:29:32.597Z,13.30
2017-12-16T00:32:00.627Z,11.90
2017-12-16T00:34:29.462Z,11.12
2017-12-16T00:36:57.494Z,11.63
2017-12-16T00:39:26.312Z,10.82
2017-12-16T00:41:54.334Z,10.90
2017-12-16T00:44:22.362Z,11.25
2017-12-16T00:46:50.393Z,11.05
2017-12-16T00:49:19.191Z,11.95
2017-12-16T00:51:47.230Z,10.30
2017-12-16T00:54:15.283Z,10.07
2017-12-16T00:56:43.347Z,9.88
2017-12-16T00:59:11.366Z,10.65
2017-12-16T01:01:40.115Z,10.13
2017-12-16T01:04:08.111Z,9.65
2017-12-16T01:06:36.133Z,9.25
2017-12-16T01:09:04.238Z,8.93
2017-12-16T01:11:32.254Z,8.40
2017-12-16T01:14:00.271Z,7.93
2017-12-16T01:16:28.257Z,7.20
2017-12-16T01:18:56.258Z,7.55
2017-12-16T01:21:25.038Z,7.78
2017-12-16T01:23:53.823Z,8.40
2017-12-16T01:26:22.634Z,7.90
2017-12-16T01:28:50.658Z,8.52
2017-12-16T01:31:18.675Z,9.25
2017-12-16T01:33:58.439Z,8.23
2017-12-16T01:36:38.178Z,10.43
2017-12-16T01:39:06.187Z,9.00
2017-12-16T01:41:34.230Z,9.73
2017-12-16T01:44:02.250Z,10.60
2017-12-16T01:46:31.045Z,11.25
2017-12-16T01:48:59.803Z,12.80
2017-12-16T01:51:27.864Z,13.25
2017-12-16T01:53:55.962Z,16.52
2017-12-16T01:56:24.014Z,18.23
2017-12-16T01:58:52.030Z,22.52
2017-12-16T02:01:20.863Z,26.40
2017-12-16T02:03:48.927Z,28.10
2017-12-16T02:06:17.025Z,31.52
2017-12-16T02:08:45.086Z,29.12
2017-12-16T02:11:13.139Z,24.20
2017-12-16T02:13:41.167Z,21.58
2017-12-16T02:16:10.008Z,21.17
2017-12-16T02:18:38.309Z,29.20
2017-12-16T02:21:06.385Z,28.38
2017-12-16T02:23:34.446Z,34.72
2017-12-16T02:26:02.554Z,35.15
2017-12-16T02:28:31.398Z,35.03
2017-12-16T02:30:59.500Z,36.38
2017-12-16T02:33:27.610Z,37.25
2017-12-16T02:35:55.664Z,37.15
2017-12-16T02:38:24.520Z,33.92
2017-12-16T02:40:52.579Z,36.42
2017-12-16T02:43:20.667Z,38.92
2017-12-16T02:45:48.746Z,35.33
2017-12-16T02:48:16.894Z,35.60
2017-12-16T02:50:44.999Z,37.15
2017-12-16T02:53:13.149Z,36.78
2017-12-16T02:55:41.223Z,36.22
2017-12-16T02:58:09.300Z,35.72
2017-12-16T03:00:37.424Z,36.33
2017-12-16T03:03:05.487Z,38.78
2017-12-16T03:05:33.562Z,38.30
2017-12-16T03:08:01.634Z,36.25
2017-12-16T03:10:29.714Z,34.78
2017-12-16T03:12:57.802Z,34.67
2017-12-16T03:15:25.902Z,33.13
2017-12-16T03:17:53.980Z,33.70
2017-12-16T03:20:22.099Z,34.15
2017-12-16T03:22:50.203Z,32.40
2017-12-16T03:25:18.285Z,34.67
2017-12-16T03:27:46.372Z,37.60
2017-12-16T03:30:14.686Z,40.10
2017-12-16T03:32:42.768Z,41.33
2017-12-16T03:35:10.866Z,39.42
2017-12-16T03:37:38.996Z,40.90
2017-12-16T03:40:07.878Z,43.33
2017-12-16T03:42:36.734Z,47.78
2017-12-16T03:45:04.838Z,46.47
2017-12-16T03:47:33.702Z,45.67
2017-12-16T03:50:01.770Z,49.47
2017-12-16T03:52:29.836Z,52.05
2017-12-16T03:54:57.899Z,49.03
2017-12-16T03:57:26.002Z,53.00
2017-12-16T03:59:54.063Z,50.38
2017-12-16T04:02:22.087Z,52.80
2017-12-16T04:04:50.183Z,49.92
2017-12-16T04:07:18.254Z,51.80
2017-12-16T04:09:46.300Z,51.78
2017-12-16T04:12:14.367Z,47.13
2017-12-16T04:14:42.457Z,48.83
2017-12-16T04:17:10.550Z,47.00
2017-12-16T04:19:38.655Z,47.38
2017-12-16T04:22:07.512Z,47.05
2017-12-16T04:24:35.576Z,43.58
2017-12-16T04:27:03.699Z,45.40
2017-12-16T04:29:32.565Z,47.70
2017-12-16T04:32:00.648Z,49.53
2017-12-16T04:34:29.482Z,47.72
2017-12-16T04:36:57.567Z,47.75
2017-12-16T04:39:25.632Z,46.13
2017-12-16T04:41:53.715Z,50.63
2017-12-16T04:44:21.779Z,53.10
2017-12-16T04:46:49.820Z,47.78
2017-12-16T04:49:17.908Z,47.88
2017-12-16T04:51:45.946Z,48.75
2017-12-16T04:54:14.733Z,46.50
2017-12-16T04:56:43.563Z,45.92
2017-12-16T04:59:11.612Z,45.75
2017-12-16T05:01:39.636Z,46.58
2017-12-16T05:04:07.706Z,44.85
2017-12-16T05:06:35.798Z,46.33
2017-12-16T05:09:03.888Z,44.28
2017-12-16T05:11:32.698Z,44.97
2017-12-16T05:14:00.790Z,45.80
2017-12-16T05:16:28.835Z,43.65
2017-12-16T05:18:56.930Z,45.03
2017-12-16T05:21:24.996Z,43.30
2017-12-16T05:23:53.098Z,42.35
2017-12-16T05:26:21.167Z,42.88
2017-12-16T05:28:49.233Z,45.40
2017-12-16T05:31:17.366Z,44.83
2017-12-16T05:33:45.409Z,42.80
2017-12-16T05:36:13.496Z,42.67
2017-12-16T05:38:42.327Z,46.00
2017-12-16T05:41:10.395Z,44.10
2017-12-16T05:43:38.418Z,44.08
2017-12-16T05:46:07.277Z,44.10
2017-12-16T05:48:35.614Z,43.00
2017-12-16T05:51:03.714Z,41.78
2017-12-16T05:53:31.780Z,40.50
2017-12-16T05:55:59.879Z,41.13
2017-12-16T05:58:27.952Z,41.45
2017-12-16T06:00:55.978Z,43.17
2017-12-16T06:03:24.089Z,39.38
2017-12-16T06:05:52.199Z,42.85
2017-12-16T06:08:21.020Z,42.13
2017-12-16T06:10:49.104Z,40.47
2017-12-16T06:13:17.126Z,41.90
2017-12-16T06:15:45.938Z,41.72
2017-12-16T06:18:14.024Z,41.15
2017-12-16T06:20:42.084Z,41.63
2017-12-16T06:23:10.179Z,41.78
2017-12-16T06:25:39.122Z,42.22
2017-12-16T06:28:07.899Z,40.30
2017-12-16T06:30:36.890Z,38.90
2017-12-16T06:33:05.495Z,40.80
2017-12-16T06:35:34.321Z,37.53
2017-12-16T06:38:02.442Z,38.55
2017-12-16T06:40:30.508Z,36.67
2017-12-16T06:42:58.571Z,37.08
2017-12-16T06:45:26.603Z,37.13
2017-12-16T06:47:54.696Z,37.45
2017-12-16T06:50:22.792Z,36.42
2017-12-16T06:52:50.839Z,37.60
2017-12-16T06:55:18.993Z,35.75
2017-12-16T06:57:47.067Z,36.13
2017-12-16T07:00:15.158Z,36.72
2017-12-16T07:02:43.245Z,34.67
2017-12-16T07:05:11.292Z,33.70
2017-12-16T07:07:39.335Z,36.22
2017-12-16T07:10:07.376Z,38.03
2017-12-16T07:12:35.430Z,33.08
2017-12-16T07:15:03.507Z,34.05
2017-12-16T07:17:31.555Z,34.38
2017-12-16T07:19:59.648Z,31.83
2017-12-16T07:22:27.711Z,31.83
2017-12-16T07:24:55.735Z,30.60
2017-12-16T07:27:23.765Z,28.60
2017-12-16T07:29:51.835Z,28.45
2017-12-16T07:32:19.886Z,29.60
2017-12-16T07:34:47.939Z,27.70
2017-12-16T07:37:15.918Z,28.85
2017-12-16T07:39:43.899Z,25.65
2017-12-16T07:42:11.948Z,25.25
2017-12-16T07:44:39.958Z,29.73
2017-12-16T07:47:08.026Z,26.20
2017-12-16T07:49:36.014Z,26.30
2017-12-16T07:52:04.758Z,25.42
2017-12-16T07:54:33.769Z,24.37
2017-12-16T07:57:01.822Z,26.30
2017-12-16T07:59:29.857Z,36.95
2017-12-16T08:01:57.946Z,29.98
2017-12-16T08:04:25.992Z,26.50
2017-12-16T08:06:54.787Z,27.30
2017-12-16T08:09:22.806Z,25.83
2017-12-16T08:11:50.800Z,26.67
2017-12-16T08:14:18.807Z,26.10
2017-12-16T08:16:46.849Z,40.28
2017-12-16T08:19:15.647Z,38.75
2017-12-16T08:21:44.437Z,37.53
2017-12-16T08:24:13.249Z,32.30
2017-12-16T08:26:41.246Z,33.67
2017-12-16T08:29:10.065Z,26.90
2017-12-16T08:31:38.069Z,33.13
2017-12-16T08:34:06.102Z,59.83
2017-12-16T08:36:34.131Z,38.55
2017-12-16T08:39:02.148Z,36.00
2017-12-16T08:41:30.128Z,34.28
2017-12-16T08:43:58.879Z,32.42
2017-12-16T08:46:26.887Z,30.80
2017-12-16T08:48:55.645Z,33.88
2017-12-16T08:51:23.654Z,32.88
2017-12-16T08:53:52.447Z,39.17
2017-12-16T08:56:20.515Z,45.72
2017-12-16T08:58:49.298Z,40.70
2017-12-16T09:01:18.162Z,37.85
2017-12-16T09:03:46.172Z,40.63
2017-12-16T09:06:14.222Z,43.55
2017-12-16T09:08:43.004Z,40.20
2017-12-16T09:11:11.002Z,39.83
2017-12-16T09:13:38.979Z,38.97
2017-12-16T09:16:06.981Z,39.95
2017-12-16T09:18:34.986Z,41.47
2017-12-16T09:21:02.994Z,39.10
2017-12-16T09:23:31.014Z,38.80
2017-12-16T09:25:59.008Z,39.80
2017-12-16T09:28:27.782Z,41.47
2017-12-16T09:30:55.797Z,40.63
2017-12-16T09:33:23.811Z,39.42
2017-12-16T09:35:51.792Z,41.70
2017-12-16T09:38:19.830Z,43.25
2017-12-16T09:40:47.849Z,40.17
2017-12-16T09:43:16.605Z,40.37
2017-12-16T09:45:45.498Z,40.22
2017-12-16T09:48:13.488Z,39.88
2017-12-16T09:50:42.318Z,40.10
2017-12-16T09:53:10.347Z,44.10
2017-12-16T09:55:39.114Z,44.03
2017-12-16T09:58:07.102Z,45.83
2017-12-16T10:00:35.150Z,47.25
2017-12-16T10:03:03.168Z,48.83
2017-12-16T10:05:32.280Z,44.47
2017-12-16T10:08:01.296Z,45.63
2017-12-16T10:10:29.343Z,46.67
2017-12-16T10:12:57.450Z,46.55
2017-12-16T10:15:25.456Z,46.70
2017-12-16T10:17:54.234Z,44.92
2017-12-16T10:20:22.263Z,45.60
2017-12-16T10:22:50.353Z,49.08
2017-12-16T10:25:18.399Z,44.75
2017-12-16T10:27:46.511Z,46.75
2017-12-16T10:30:14.545Z,47.35
2017-12-16T10:32:44.693Z,56.20
2017-12-16T10:35:12.703Z,56.85
2017-12-16T10:37:41.467Z,53.17
2017-12-16T10:40:09.576Z,48.17
2017-12-16T10:42:37.947Z,46.83
2017-12-16T10:45:05.957Z,49.42
2017-12-16T10:47:34.017Z,51.35
2017-12-16T10:50:10.782Z,51.08
2017-12-16T10:52:50.716Z,46.45
2017-12-16T10:55:28.198Z,49.03
2017-12-16T10:58:09.701Z,42.80
2017-12-16T11:01:04.769Z,35.80
2017-12-16T11:03:44.970Z,40.80
2017-12-16T11:06:25.156Z,42.05
2017-12-16T11:09:06.060Z,41.90
2017-12-16T11:11:39.321Z,38.72
2017-12-16T11:14:16.929Z,38.90
2017-12-16T11:16:52.799Z,38.97
2017-12-16T11:19:29.455Z,39.35
2017-12-16T11:22:04.650Z,41.25
2017-12-16T11:24:40.191Z,39.88
2017-12-16T11:27:18.294Z,37.55
2017-12-16T11:29:51.287Z,33.45
2017-12-16T11:32:23.369Z,34.63
2017-12-16T11:34:57.282Z,29.73
2017-12-16T11:37:30.451Z,29.60
2017-12-16T11:40:03.623Z,26.83
2017-12-16T11:42:32.389Z,22.40
2017-12-16T11:45:05.320Z,20.60
2017-12-16T11:47:38.092Z,18.15
2017-12-16T11:50:11.507Z,21.62
2017-12-16T11:52:44.312Z,18.70
2017-12-16T11:55:18.049Z,18.83
2017-12-16T11:57:51.665Z,17.00
2017-12-16T12:00:24.351Z,17.33
2017-12-16T12:02:56.094Z,30.00
2017-12-16T12:05:29.490Z,17.23
2017-12-16T12:08:02.682Z,15.70
2017-12-16T12:10:35.617Z,15.93
2017-12-16T12:13:09.243Z,15.70
2017-12-16T12:15:42.831Z,18.00
2017-12-16T12:18:16.490Z,18.10
2017-12-16T12:20:50.159Z,18.23
2017-12-16T12:23:23.074Z,18.10
2017-12-16T12:25:56.545Z,20.90
2017-12-16T12:28:28.793Z,17.50
2017-12-16T12:31:00.858Z,24.60
2017-12-16T12:33:33.696Z,18.43
2017-12-16T12:36:07.261Z,17.00
2017-12-16T12:38:40.198Z,18.80
2017-12-16T12:41:14.136Z,24.60
2017-12-16T12:43:47.049Z,17.80
2017-12-16T12:46:20.558Z,19.07
2017-12-16T12:48:53.335Z,18.23
2017-12-16T12:51:23.986Z,17.43
2017-12-16T12:53:57.692Z,18.13
2017-12-16T12:56:31.873Z,19.03
2017-12-16T12:59:05.103Z,18.03
2017-12-16T13:01:39.079Z,18.30
2017-12-16T13:04:12.464Z,19.03
2017-12-16T13:06:45.712Z,19.77
2017-12-16T13:09:19.277Z,18.37
2017-12-16T13:11:52.830Z,18.23
2017-12-16T13:14:26.872Z,18.40
2017-12-16T13:17:00.409Z,20.90
2017-12-16T13:19:34.801Z,18.70
2017-12-16T13:22:08.095Z,19.07
2017-12-16T13:24:41.535Z,19.00
2017-12-16T13:27:15.204Z,20.40
2017-12-16T13:29:48.801Z,19.07
2017-12-16T13:32:22.152Z,19.90
2017-12-16T13:34:55.375Z,18.43
2017-12-16T13:37:28.348Z,19.20
2017-12-16T13:40:01.721Z,19.90
2017-12-16T13:42:35.934Z,19.10
2017-12-16T13:45:03.994Z,20.80
2017-12-16T13:47:32.764Z,41.33
2017-12-16T13:50:01.528Z,39.60
2017-12-16T13:52:29.530Z,34.07
2017-12-16T13:54:58.327Z,83.37
2017-12-16T13:57:27.117Z,35.23
2017-12-16T13:59:55.901Z,58.00
2017-12-16T14:02:24.029Z,45.63
2017-12-16T14:04:52.018Z,43.43
2017-12-16T14:07:19.999Z,24.50
2017-12-16T14:09:48.090Z,29.43
2017-12-16T14:12:16.878Z,25.20
2017-12-16T14:14:45.677Z,27.87
2017-12-16T14:17:13.679Z,31.50
2017-12-16T14:19:41.666Z,25.63
2017-12-16T14:22:09.639Z,19.93
2017-12-16T14:24:37.678Z,23.70
2017-12-16T14:27:05.651Z,28.25
2017-12-16T14:29:33.649Z,24.00
2017-12-16T14:32:01.689Z,23.10
2017-12-16T14:34:29.737Z,23.20
2017-12-16T14:36:57.787Z,25.80
2017-12-16T14:39:26.621Z,21.35
2017-12-16T14:41:54.648Z,25.90
2017-12-16T14:44:23.429Z,27.33
2017-12-16T14:46:51.479Z,29.63
2017-12-16T14:49:19.515Z,36.20
2017-12-16T14:51:47.498Z,32.63
2017-12-16T14:54:15.511Z,31.48
2017-12-16T14:56:43.512Z,36.63
2017-12-16T14:59:11.523Z,29.13
2017-12-16T15:01:39.536Z,26.73
2017-12-16T15:04:08.291Z,26.23
2017-12-16T15:06:36.304Z,25.75
2017-12-16T15:09:05.147Z,27.05
2017-12-16T15:11:35.251Z,27.02
2017-12-16T15:14:06.106Z,82.68
2017-12-16T15:16:34.186Z,108.97
2017-12-16T15:19:02.176Z,64.30
2017-12-16T15:21:34.071Z,29.50
2017-12-16T15:24:02.987Z,26.83
2017-12-16T15:26:31.772Z,42.30
2017-12-16T15:29:00.515Z,37.92
2017-12-16T15:31:29.869Z,44.72
2017-12-16T15:33:58.288Z,26.73
2017-12-16T15:36:27.401Z,37.55
2017-12-16T15:38:55.733Z,38.60
2017-12-16T15:41:24.471Z,28.87
2017-12-16T15:43:53.159Z,27.20
2017-12-16T15:46:21.718Z,26.57
2017-12-16T15:48:51.842Z,21.85
2017-12-16T15:51:21.172Z,25.35
2017-12-16T15:53:49.844Z,21.95
2017-12-16T15:56:18.033Z,21.33
2017-12-16T15:58:46.134Z,21.35
2017-12-16T16:01:14.200Z,22.48
2017-12-16T16:03:42.288Z,23.00
2017-12-16T16:06:10.349Z,24.27
2017-12-16T16:08:39.309Z,22.20
2017-12-16T16:11:07.393Z,25.67
2017-12-16T16:13:35.531Z,27.37
2017-12-16T16:16:04.646Z,25.23
2017-12-16T16:18:35.198Z,24.90
2017-12-16T16:21:04.333Z,25.92
2017-12-16T16:23:32.452Z,28.73
2017-12-16T16:26:01.689Z,28.92
2017-12-16T16:28:29.872Z,25.37
2017-12-16T16:30:58.896Z,34.08
2017-12-16T16:33:27.979Z,28.30
2017-12-16T16:35:56.236Z,29.85
2017-12-16T16:38:24.295Z,27.20
2017-12-16T16:40:52.391Z,32.05
2017-12-16T16:43:20.598Z,28.98
2017-12-16T16:45:49.595Z,32.05
2017-12-16T16:48:17.996Z,31.77
2017-12-16T16:50:46.489Z,29.50
2017-12-16T16:53:14.870Z,28.45
2017-12-16T16:55:43.999Z,29.40
2017-12-16T16:58:12.636Z,28.52
2017-12-16T17:00:41.130Z,27.30
2017-12-16T17:03:09.664Z,26.60
2017-12-16T17:05:39.440Z,37.85
2017-12-16T17:08:07.765Z,35.70
2017-12-16T17:10:36.806Z,72.95
2017-12-16T17:13:05.429Z,40.65
2017-12-16T17:15:34.994Z,32.75
2017-12-16T17:18:03.525Z,31.23
2017-12-16T17:20:32.958Z,26.92
2017-12-16T17:23:01.157Z,36.53
2017-12-16T17:25:29.283Z,30.02
2017-12-16T17:27:58.226Z,25.67
2017-12-16T17:30:26.368Z,26.40
2017-12-16T17:32:54.366Z,48.25
2017-12-16T17:35:22.540Z,45.97
2017-12-16T17:37:50.666Z,30.75
2017-12-16T17:40:19.481Z,31.15
2017-12-16T17:42:47.611Z,26.23
2017-12-16T17:45:23.791Z,29.95
2017-12-16T17:47:52.540Z,41.55
2017-12-16T17:50:20.683Z,28.30
2017-12-16T17:52:49.468Z,28.92
2017-12-16T17:55:17.505Z,28.17
2017-12-16T17:57:46.287Z,30.70
2017-12-16T18:00:15.150Z,33.33
2017-12-16T18:02:43.131Z,34.13
2017-12-16T18:05:11.142Z,49.05
2017-12-16T18:07:39.100Z,41.08
2017-12-16T18:10:07.920Z,30.98
2017-12-16T18:12:35.923Z,33.88
2017-12-16T18:15:04.008Z,31.37
2017-12-16T18:17:32.007Z,29.00
2017-12-16T18:20:00.842Z,30.02
2017-12-16T18:22:28.852Z,26.12
2017-12-16T18:24:57.662Z,27.17
2017-12-16T18:27:25.707Z,27.40
2017-12-16T18:29:54.477Z,27.75
2017-12-16T18:32:22.575Z,28.38
2017-12-16T18:34:51.808Z,28.42
2017-12-16T18:37:19.863Z,27.02
2017-12-16T18:39:47.899Z,29.10
2017-12-16T18:42:15.951Z,31.95
2017-12-16T18:44:43.994Z,30.62
2017-12-16T18:47:12.090Z,33.55
2017-12-16T18:49:40.970Z,30.50
2017-12-16T18:52:08.978Z,31.98
2017-12-16T18:54:36.999Z,33.42
2017-12-16T18:57:05.076Z,31.83
2017-12-16T18:59:33.071Z,29.73
2017-12-16T19:02:01.150Z,31.25
2017-12-16T19:04:29.176Z,30.92
2017-12-16T19:06:57.194Z,32.60
2017-12-16T19:09:25.200Z,31.90
2017-12-16T19:11:54.012Z,32.65
2017-12-16T19:14:22.053Z,33.25
2017-12-16T19:16:50.854Z,30.08
2017-12-16T19:19:18.846Z,30.65
2017-12-16T19:21:46.837Z,29.02
2017-12-16T19:24:14.827Z,28.73
2017-12-16T19:26:42.855Z,29.15
2017-12-16T19:29:10.868Z,28.08
2017-12-16T19:31:38.882Z,28.38
2017-12-16T19:34:06.938Z,31.23
2017-12-16T19:36:35.706Z,27.80
2017-12-16T19:39:03.799Z,28.90
2017-12-16T19:41:32.636Z,28.55
2017-12-16T19:44:00.851Z,26.35
2017-12-16T19:46:29.604Z,27.60
2017-12-16T19:48:57.595Z,27.10
2017-12-16T19:51:25.632Z,28.67
2017-12-16T19:53:53.895Z,30.25
2017-12-16T19:56:22.168Z,27.80
2017-12-16T19:58:50.196Z,30.08
2017-12-16T20:01:18.187Z,29.42
2017-12-16T20:03:46.970Z,29.12
2017-12-16T20:06:15.744Z,29.23
2017-12-16T20:08:43.786Z,30.67
2017-12-16T20:11:11.787Z,31.48
2017-12-16T20:13:39.838Z,28.98
2017-12-16T20:16:08.030Z,31.12
2017-12-16T20:18:36.302Z,32.10
2017-12-16T20:21:06.678Z,29.98
2017-12-16T20:23:39.590Z,30.23
2017-12-16T20:26:11.445Z,30.10
2017-12-16T20:28:41.962Z,29.60
2017-12-16T20:31:12.601Z,29.08
2017-12-16T20:33:44.512Z,29.12
2017-12-16T20:36:17.206Z,28.77
2017-12-16T20:38:47.466Z,29.65
2017-12-16T20:41:15.694Z,28.60
2017-12-16T20:43:44.511Z,29.15
2017-12-16T20:46:12.865Z,26.62
2017-12-16T20:48:41.004Z,26.05
2017-12-16T20:51:09.079Z,30.23
2017-12-16T20:53:37.129Z,28.77
2017-12-16T20:56:05.784Z,28.05
2017-12-16T20:58:34.158Z,28.62
2017-12-16T21:01:02.615Z,30.15
2017-12-16T21:03:31.632Z,30.30
2017-12-16T21:06:00.096Z,28.75
2017-12-16T21:08:30.873Z,30.05
2017-12-16T21:11:00.342Z,27.30
2017-12-16T21:13:29.211Z,29.80
2017-12-16T21:15:57.380Z,26.20
2017-12-16T21:18:25.703Z,28.40
2017-12-16T21:20:53.955Z,28.45
2017-12-16T21:23:22.971Z,27.33
2017-12-16T21:25:51.058Z,25.45
2017-12-16T21:28:19.385Z,26.15
2017-12-16T21:30:47.611Z,28.42
2017-12-16T21:33:15.606Z,27.20
2017-12-16T21:35:43.591Z,25.52
2017-12-16T21:38:11.571Z,25.98
2017-12-16T21:40:39.538Z,28.17
2017-12-16T21:43:07.577Z,27.30
2017-12-16T21:45:35.543Z,25.25
2017-12-16T21:48:03.535Z,24.85
2017-12-16T21:50:31.574Z,24.65
2017-12-16T21:52:59.551Z,24.00
2017-12-16T21:55:27.566Z,26.98
2017-12-16T21:57:55.574Z,24.50
2017-12-16T22:00:23.578Z,23.33
2017-12-16T22:02:51.860Z,25.25
2017-12-16T22:05:20.015Z,23.00
2017-12-16T22:07:48.567Z,23.30
2017-12-16T22:10:16.539Z,25.80
2017-12-16T22:12:44.582Z,22.65
2017-12-16T22:15:13.317Z,23.12
2017-12-16T22:17:42.123Z,20.48
2017-12-16T22:20:10.121Z,23.70
2017-12-16T22:22:38.111Z,23.65
2017-12-16T22:25:06.881Z,20.12
2017-12-16T22:27:35.637Z,20.70
2017-12-16T22:30:03.691Z,21.98
2017-12-16T22:32:31.683Z,22.15
2017-12-16T22:34:59.706Z,20.48
2017-12-16T22:37:27.803Z,21.80
2017-12-16T22:39:55.811Z,19.37
2017-12-16T22:42:23.895Z,22.40
2017-12-16T22:44:52.697Z,22.27
2017-12-16T22:47:21.488Z,20.92
2017-12-16T22:49:50.363Z,21.90
2017-12-16T22:52:18.368Z,20.65
2017-12-16T22:54:46.386Z,21.25
2017-12-16T22:57:14.490Z,19.92
2017-12-16T22:59:43.334Z,18.15
2017-12-16T23:02:11.342Z,20.92
2017-12-16T23:04:40.206Z,19.30
2017-12-16T23:07:08.263Z,19.20
2017-12-16T23:09:37.175Z,19.55
2017-12-16T23:12:05.226Z,19.45
2017-12-16T23:14:33.287Z,20.17
2017-12-16T23:17:01.989Z,18.45
2017-12-16T23:19:30.055Z,19.75
2017-12-16T23:21:58.128Z,18.60
2017-12-16T23:24:26.187Z,18.30
2017-12-16T23:26:57.504Z,20.27
2017-12-16T23:29:28.671Z,19.62
2017-12-16T23:31:57.695Z,19.17
2017-12-16T23:34:25.872Z,18.58
2017-12-16T23:36:53.956Z,16.73
2017-12-16T23:39:22.035Z,17.60
2017-12-16T23:41:50.139Z,16.60
2017-12-16T23:44:18.210Z,17.02
2017-12-16T23:46:46.286Z,19.45
2017-12-16T23:49:14.386Z,20.02
2017-12-16T23:51:42.466Z,19.40
2017-12-16T23:54:10.526Z,19.90
2017-12-16T23:56:38.658Z,19.00
2017-12-16T23:59:07.514Z,21.27
